<?xml version="1.0" encoding="UTF-8" standalone="no" ?>
<gpx xmlns="http://www.topografix.com/GPX/1/1" xmlns:xsi="http://www.w3.org/2001/XMLSchema-instance" xsi:schemaLocation="http://www.topografix.com/GPX/1/1 http://www.topografix.com/GPX/1/1/gpx.xsd" version="1.1" creator="VisuGPX - https://www.visugpx.com">
  <metadata>
    <name>64 - RAQUETTES - Plateau d'Anéou - Pic de Canaourouye depuis parking de la cabane de l'Araille INTERROMPUE</name>
    <desc><![CDATA[Sortie interrompue par les mauvaises conditions météo (neige et nuages bas) ]]></desc>
  </metadata>
  <trk>
    <name><![CDATA[ACTIVE LOG]]></name>
    <trkseg>
      <trkpt lat="42.81577" lon="-0.41716">
        <ele>1714.167969</ele>
        <time>2013-01-12T09:45:32Z</time>
      </trkpt>
      <trkpt lat="42.81577" lon="-0.41716">
        <ele>1714.167969</ele>
        <time>2013-01-12T09:45:33Z</time>
      </trkpt>
      <trkpt lat="42.81577" lon="-0.41716">
        <ele>1712.726074</ele>
        <time>2013-01-12T09:45:42Z</time>
      </trkpt>
      <trkpt lat="42.81576" lon="-0.41714">
        <ele>1713.687256</ele>
        <time>2013-01-12T09:45:53Z</time>
      </trkpt>
      <trkpt lat="42.81577" lon="-0.41715">
        <ele>1714.648682</ele>
        <time>2013-01-12T09:46:20Z</time>
      </trkpt>
      <trkpt lat="42.81572" lon="-0.41733">
        <ele>1715.129395</ele>
        <time>2013-01-12T09:46:37Z</time>
      </trkpt>
      <trkpt lat="42.8156" lon="-0.41758">
        <ele>1716.571289</ele>
        <time>2013-01-12T09:46:57Z</time>
      </trkpt>
      <trkpt lat="42.81541" lon="-0.41786">
        <ele>1719.455322</ele>
        <time>2013-01-12T09:47:22Z</time>
      </trkpt>
      <trkpt lat="42.81535" lon="-0.41803">
        <ele>1720.897217</ele>
        <time>2013-01-12T09:47:41Z</time>
      </trkpt>
      <trkpt lat="42.81529" lon="-0.41817">
        <ele>1721.377686</ele>
        <time>2013-01-12T09:48:01Z</time>
      </trkpt>
      <trkpt lat="42.81527" lon="-0.41819">
        <ele>1719.935791</ele>
        <time>2013-01-12T09:48:18Z</time>
      </trkpt>
      <trkpt lat="42.81526" lon="-0.41819">
        <ele>1718.013184</ele>
        <time>2013-01-12T09:48:42Z</time>
      </trkpt>
      <trkpt lat="42.81525" lon="-0.41817">
        <ele>1718.493896</ele>
        <time>2013-01-12T09:49:03Z</time>
      </trkpt>
      <trkpt lat="42.81527" lon="-0.41813">
        <ele>1719.935791</ele>
        <time>2013-01-12T09:49:34Z</time>
      </trkpt>
      <trkpt lat="42.8153" lon="-0.41817">
        <ele>1719.935791</ele>
        <time>2013-01-12T09:49:45Z</time>
      </trkpt>
      <trkpt lat="42.81527" lon="-0.41822">
        <ele>1718.974609</ele>
        <time>2013-01-12T09:50:10Z</time>
      </trkpt>
      <trkpt lat="42.81521" lon="-0.4183">
        <ele>1718.974609</ele>
        <time>2013-01-12T09:50:23Z</time>
      </trkpt>
      <trkpt lat="42.81509" lon="-0.41845">
        <ele>1720.416504</ele>
        <time>2013-01-12T09:50:41Z</time>
      </trkpt>
      <trkpt lat="42.81498" lon="-0.41853">
        <ele>1718.974609</ele>
        <time>2013-01-12T09:50:53Z</time>
      </trkpt>
      <trkpt lat="42.81482" lon="-0.41858">
        <ele>1716.571289</ele>
        <time>2013-01-12T09:51:09Z</time>
      </trkpt>
      <trkpt lat="42.81461" lon="-0.41879">
        <ele>1715.129395</ele>
        <time>2013-01-12T09:51:34Z</time>
      </trkpt>
      <trkpt lat="42.81443" lon="-0.41901">
        <ele>1713.687256</ele>
        <time>2013-01-12T09:51:56Z</time>
      </trkpt>
      <trkpt lat="42.81432" lon="-0.41926">
        <ele>1713.206787</ele>
        <time>2013-01-12T09:52:16Z</time>
      </trkpt>
      <trkpt lat="42.8143" lon="-0.41937">
        <ele>1713.687256</ele>
        <time>2013-01-12T09:52:25Z</time>
      </trkpt>
      <trkpt lat="42.81423" lon="-0.41968">
        <ele>1713.206787</ele>
        <time>2013-01-12T09:52:47Z</time>
      </trkpt>
      <trkpt lat="42.81407" lon="-0.41999">
        <ele>1713.206787</ele>
        <time>2013-01-12T09:53:11Z</time>
      </trkpt>
      <trkpt lat="42.81393" lon="-0.42024">
        <ele>1713.687256</ele>
        <time>2013-01-12T09:53:31Z</time>
      </trkpt>
      <trkpt lat="42.81374" lon="-0.42044">
        <ele>1714.648682</ele>
        <time>2013-01-12T09:53:52Z</time>
      </trkpt>
      <trkpt lat="42.81363" lon="-0.42057">
        <ele>1715.129395</ele>
        <time>2013-01-12T09:54:11Z</time>
      </trkpt>
      <trkpt lat="42.8136" lon="-0.42079">
        <ele>1715.610107</ele>
        <time>2013-01-12T09:54:30Z</time>
      </trkpt>
      <trkpt lat="42.81367" lon="-0.42085">
        <ele>1715.610107</ele>
        <time>2013-01-12T09:54:41Z</time>
      </trkpt>
      <trkpt lat="42.81385" lon="-0.42107">
        <ele>1715.129395</ele>
        <time>2013-01-12T09:55:03Z</time>
      </trkpt>
      <trkpt lat="42.81389" lon="-0.42134">
        <ele>1716.090576</ele>
        <time>2013-01-12T09:55:23Z</time>
      </trkpt>
      <trkpt lat="42.81388" lon="-0.42137">
        <ele>1715.129395</ele>
        <time>2013-01-12T09:55:26Z</time>
      </trkpt>
      <trkpt lat="42.81387" lon="-0.42142">
        <ele>1716.571289</ele>
        <time>2013-01-12T09:55:30Z</time>
      </trkpt>
      <trkpt lat="42.8138" lon="-0.42169">
        <ele>1718.974609</ele>
        <time>2013-01-12T09:55:52Z</time>
      </trkpt>
      <trkpt lat="42.81378" lon="-0.42188">
        <ele>1719.935791</ele>
        <time>2013-01-12T09:56:07Z</time>
      </trkpt>
      <trkpt lat="42.81377" lon="-0.42206">
        <ele>1719.455322</ele>
        <time>2013-01-12T09:56:19Z</time>
      </trkpt>
      <trkpt lat="42.81375" lon="-0.42221">
        <ele>1719.455322</ele>
        <time>2013-01-12T09:56:30Z</time>
      </trkpt>
      <trkpt lat="42.81371" lon="-0.42248">
        <ele>1719.935791</ele>
        <time>2013-01-12T09:56:50Z</time>
      </trkpt>
      <trkpt lat="42.8137" lon="-0.42252">
        <ele>1720.416504</ele>
        <time>2013-01-12T09:56:53Z</time>
      </trkpt>
      <trkpt lat="42.81366" lon="-0.42265">
        <ele>1723.300537</ele>
        <time>2013-01-12T09:57:04Z</time>
      </trkpt>
      <trkpt lat="42.81363" lon="-0.42286">
        <ele>1726.18457</ele>
        <time>2013-01-12T09:57:22Z</time>
      </trkpt>
      <trkpt lat="42.81359" lon="-0.42314">
        <ele>1728.107178</ele>
        <time>2013-01-12T09:57:43Z</time>
      </trkpt>
      <trkpt lat="42.81357" lon="-0.42338">
        <ele>1730.029785</ele>
        <time>2013-01-12T09:58:02Z</time>
      </trkpt>
      <trkpt lat="42.81358" lon="-0.42361">
        <ele>1730.510498</ele>
        <time>2013-01-12T09:58:20Z</time>
      </trkpt>
      <trkpt lat="42.81357" lon="-0.42391">
        <ele>1731.47168</ele>
        <time>2013-01-12T09:58:42Z</time>
      </trkpt>
      <trkpt lat="42.81354" lon="-0.42423">
        <ele>1732.433105</ele>
        <time>2013-01-12T09:59:06Z</time>
      </trkpt>
      <trkpt lat="42.8135" lon="-0.42449">
        <ele>1734.836426</ele>
        <time>2013-01-12T09:59:26Z</time>
      </trkpt>
      <trkpt lat="42.81342" lon="-0.42474">
        <ele>1736.27832</ele>
        <time>2013-01-12T09:59:47Z</time>
      </trkpt>
      <trkpt lat="42.8134" lon="-0.42479">
        <ele>1736.758789</ele>
        <time>2013-01-12T10:00:00Z</time>
      </trkpt>
      <trkpt lat="42.81329" lon="-0.42511">
        <ele>1737.239502</ele>
        <time>2013-01-12T10:00:23Z</time>
      </trkpt>
      <trkpt lat="42.81326" lon="-0.42521">
        <ele>1738.200928</ele>
        <time>2013-01-12T10:00:31Z</time>
      </trkpt>
      <trkpt lat="42.81321" lon="-0.42543">
        <ele>1740.123779</ele>
        <time>2013-01-12T10:00:49Z</time>
      </trkpt>
      <trkpt lat="42.81316" lon="-0.42565">
        <ele>1742.046387</ele>
        <time>2013-01-12T10:01:09Z</time>
      </trkpt>
      <trkpt lat="42.81311" lon="-0.42583">
        <ele>1744.930176</ele>
        <time>2013-01-12T10:01:26Z</time>
      </trkpt>
      <trkpt lat="42.81303" lon="-0.42596">
        <ele>1747.333496</ele>
        <time>2013-01-12T10:01:46Z</time>
      </trkpt>
      <trkpt lat="42.81299" lon="-0.42597">
        <ele>1747.814209</ele>
        <time>2013-01-12T10:02:01Z</time>
      </trkpt>
      <trkpt lat="42.81295" lon="-0.42602">
        <ele>1748.775391</ele>
        <time>2013-01-12T10:02:07Z</time>
      </trkpt>
      <trkpt lat="42.81286" lon="-0.42633">
        <ele>1750.217529</ele>
        <time>2013-01-12T10:02:29Z</time>
      </trkpt>
      <trkpt lat="42.81277" lon="-0.42663">
        <ele>1752.620605</ele>
        <time>2013-01-12T10:02:52Z</time>
      </trkpt>
      <trkpt lat="42.81276" lon="-0.42665">
        <ele>1753.582031</ele>
        <time>2013-01-12T10:03:07Z</time>
      </trkpt>
      <trkpt lat="42.81274" lon="-0.42685">
        <ele>1755.023926</ele>
        <time>2013-01-12T10:03:22Z</time>
      </trkpt>
      <trkpt lat="42.81268" lon="-0.42715">
        <ele>1756.466064</ele>
        <time>2013-01-12T10:03:43Z</time>
      </trkpt>
      <trkpt lat="42.81257" lon="-0.42743">
        <ele>1759.350098</ele>
        <time>2013-01-12T10:04:05Z</time>
      </trkpt>
      <trkpt lat="42.81247" lon="-0.42765">
        <ele>1760.791992</ele>
        <time>2013-01-12T10:04:24Z</time>
      </trkpt>
      <trkpt lat="42.8124" lon="-0.42795">
        <ele>1762.7146</ele>
        <time>2013-01-12T10:04:46Z</time>
      </trkpt>
      <trkpt lat="42.81238" lon="-0.42814">
        <ele>1766.079102</ele>
        <time>2013-01-12T10:05:02Z</time>
      </trkpt>
      <trkpt lat="42.81237" lon="-0.42821">
        <ele>1767.040527</ele>
        <time>2013-01-12T10:05:21Z</time>
      </trkpt>
      <trkpt lat="42.81238" lon="-0.42824">
        <ele>1766.559814</ele>
        <time>2013-01-12T10:05:58Z</time>
      </trkpt>
      <trkpt lat="42.81239" lon="-0.42828">
        <ele>1766.559814</ele>
        <time>2013-01-12T10:06:02Z</time>
      </trkpt>
      <trkpt lat="42.81244" lon="-0.42857">
        <ele>1768.482422</ele>
        <time>2013-01-12T10:06:25Z</time>
      </trkpt>
      <trkpt lat="42.81249" lon="-0.42881">
        <ele>1768.963135</ele>
        <time>2013-01-12T10:06:45Z</time>
      </trkpt>
      <trkpt lat="42.81256" lon="-0.42906">
        <ele>1769.443848</ele>
        <time>2013-01-12T10:07:06Z</time>
      </trkpt>
      <trkpt lat="42.81265" lon="-0.42932">
        <ele>1769.443848</ele>
        <time>2013-01-12T10:07:27Z</time>
      </trkpt>
      <trkpt lat="42.81266" lon="-0.42936">
        <ele>1769.443848</ele>
        <time>2013-01-12T10:07:42Z</time>
      </trkpt>
      <trkpt lat="42.8127" lon="-0.42953">
        <ele>1768.963135</ele>
        <time>2013-01-12T10:08:06Z</time>
      </trkpt>
      <trkpt lat="42.81276" lon="-0.42976">
        <ele>1768.963135</ele>
        <time>2013-01-12T10:08:27Z</time>
      </trkpt>
      <trkpt lat="42.81282" lon="-0.42992">
        <ele>1769.443848</ele>
        <time>2013-01-12T10:08:47Z</time>
      </trkpt>
      <trkpt lat="42.81289" lon="-0.43012">
        <ele>1769.443848</ele>
        <time>2013-01-12T10:09:04Z</time>
      </trkpt>
      <trkpt lat="42.81295" lon="-0.43039">
        <ele>1770.405029</ele>
        <time>2013-01-12T10:09:26Z</time>
      </trkpt>
      <trkpt lat="42.813" lon="-0.4306">
        <ele>1770.885742</ele>
        <time>2013-01-12T10:09:43Z</time>
      </trkpt>
      <trkpt lat="42.81306" lon="-0.43087">
        <ele>1771.366211</ele>
        <time>2013-01-12T10:10:03Z</time>
      </trkpt>
      <trkpt lat="42.8131" lon="-0.43114">
        <ele>1772.808594</ele>
        <time>2013-01-12T10:10:24Z</time>
      </trkpt>
      <trkpt lat="42.81312" lon="-0.43124">
        <ele>1772.327881</ele>
        <time>2013-01-12T10:10:42Z</time>
      </trkpt>
      <trkpt lat="42.81314" lon="-0.43147">
        <ele>1773.769775</ele>
        <time>2013-01-12T10:11:03Z</time>
      </trkpt>
      <trkpt lat="42.81314" lon="-0.4317">
        <ele>1775.21167</ele>
        <time>2013-01-12T10:11:22Z</time>
      </trkpt>
      <trkpt lat="42.81312" lon="-0.43197">
        <ele>1777.61499</ele>
        <time>2013-01-12T10:11:44Z</time>
      </trkpt>
      <trkpt lat="42.81309" lon="-0.43222">
        <ele>1780.499023</ele>
        <time>2013-01-12T10:12:06Z</time>
      </trkpt>
      <trkpt lat="42.81304" lon="-0.4324">
        <ele>1782.9021</ele>
        <time>2013-01-12T10:12:24Z</time>
      </trkpt>
      <trkpt lat="42.813" lon="-0.43253">
        <ele>1785.786133</ele>
        <time>2013-01-12T10:12:39Z</time>
      </trkpt>
      <trkpt lat="42.81297" lon="-0.43273">
        <ele>1789.631592</ele>
        <time>2013-01-12T10:12:59Z</time>
      </trkpt>
      <trkpt lat="42.81292" lon="-0.43292">
        <ele>1792.996094</ele>
        <time>2013-01-12T10:13:20Z</time>
      </trkpt>
      <trkpt lat="42.81288" lon="-0.43309">
        <ele>1796.36084</ele>
        <time>2013-01-12T10:13:39Z</time>
      </trkpt>
      <trkpt lat="42.81287" lon="-0.43322">
        <ele>1799.244629</ele>
        <time>2013-01-12T10:13:54Z</time>
      </trkpt>
      <trkpt lat="42.81289" lon="-0.43337">
        <ele>1802.128418</ele>
        <time>2013-01-12T10:14:12Z</time>
      </trkpt>
      <trkpt lat="42.8129" lon="-0.43351">
        <ele>1804.531982</ele>
        <time>2013-01-12T10:14:29Z</time>
      </trkpt>
      <trkpt lat="42.81287" lon="-0.43365">
        <ele>1807.416016</ele>
        <time>2013-01-12T10:14:47Z</time>
      </trkpt>
      <trkpt lat="42.81285" lon="-0.43371">
        <ele>1808.85791</ele>
        <time>2013-01-12T10:14:54Z</time>
      </trkpt>
      <trkpt lat="42.81281" lon="-0.43381">
        <ele>1811.741943</ele>
        <time>2013-01-12T10:15:07Z</time>
      </trkpt>
      <trkpt lat="42.81277" lon="-0.43395">
        <ele>1813.183838</ele>
        <time>2013-01-12T10:15:24Z</time>
      </trkpt>
      <trkpt lat="42.81274" lon="-0.43404">
        <ele>1815.587158</ele>
        <time>2013-01-12T10:15:35Z</time>
      </trkpt>
      <trkpt lat="42.81271" lon="-0.43426">
        <ele>1817.029053</ele>
        <time>2013-01-12T10:15:57Z</time>
      </trkpt>
      <trkpt lat="42.8127" lon="-0.43444">
        <ele>1819.912842</ele>
        <time>2013-01-12T10:16:16Z</time>
      </trkpt>
      <trkpt lat="42.81269" lon="-0.43467">
        <ele>1822.316406</ele>
        <time>2013-01-12T10:16:37Z</time>
      </trkpt>
      <trkpt lat="42.81268" lon="-0.4349">
        <ele>1824.239014</ele>
        <time>2013-01-12T10:16:58Z</time>
      </trkpt>
      <trkpt lat="42.81267" lon="-0.4351">
        <ele>1827.123047</ele>
        <time>2013-01-12T10:17:17Z</time>
      </trkpt>
      <trkpt lat="42.81267" lon="-0.43521">
        <ele>1827.123047</ele>
        <time>2013-01-12T10:17:34Z</time>
      </trkpt>
      <trkpt lat="42.81264" lon="-0.43534">
        <ele>1829.04541</ele>
        <time>2013-01-12T10:17:51Z</time>
      </trkpt>
      <trkpt lat="42.81263" lon="-0.43547">
        <ele>1829.04541</ele>
        <time>2013-01-12T10:18:22Z</time>
      </trkpt>
      <trkpt lat="42.81258" lon="-0.43564">
        <ele>1830.487549</ele>
        <time>2013-01-12T10:18:40Z</time>
      </trkpt>
      <trkpt lat="42.81255" lon="-0.43583">
        <ele>1831.44873</ele>
        <time>2013-01-12T10:19:02Z</time>
      </trkpt>
      <trkpt lat="42.81256" lon="-0.43601">
        <ele>1834.813477</ele>
        <time>2013-01-12T10:19:22Z</time>
      </trkpt>
      <trkpt lat="42.81256" lon="-0.43602">
        <ele>1834.813477</ele>
        <time>2013-01-12T10:20:04Z</time>
      </trkpt>
      <trkpt lat="42.81258" lon="-0.43612">
        <ele>1835.774658</ele>
        <time>2013-01-12T10:20:20Z</time>
      </trkpt>
      <trkpt lat="42.8126" lon="-0.43627">
        <ele>1837.216797</ele>
        <time>2013-01-12T10:20:36Z</time>
      </trkpt>
      <trkpt lat="42.81258" lon="-0.43641">
        <ele>1840.581299</ele>
        <time>2013-01-12T10:20:52Z</time>
      </trkpt>
      <trkpt lat="42.81257" lon="-0.43651">
        <ele>1843.946045</ele>
        <time>2013-01-12T10:21:03Z</time>
      </trkpt>
      <trkpt lat="42.81256" lon="-0.43667">
        <ele>1844.907227</ele>
        <time>2013-01-12T10:21:21Z</time>
      </trkpt>
      <trkpt lat="42.81256" lon="-0.43682">
        <ele>1847.79126</ele>
        <time>2013-01-12T10:21:38Z</time>
      </trkpt>
      <trkpt lat="42.81255" lon="-0.43698">
        <ele>1851.636475</ele>
        <time>2013-01-12T10:21:58Z</time>
      </trkpt>
      <trkpt lat="42.81256" lon="-0.43716">
        <ele>1853.559326</ele>
        <time>2013-01-12T10:22:18Z</time>
      </trkpt>
      <trkpt lat="42.81257" lon="-0.43733">
        <ele>1854.520508</ele>
        <time>2013-01-12T10:22:35Z</time>
      </trkpt>
      <trkpt lat="42.81258" lon="-0.43758">
        <ele>1856.443115</ele>
        <time>2013-01-12T10:22:57Z</time>
      </trkpt>
      <trkpt lat="42.81261" lon="-0.43783">
        <ele>1855.962402</ele>
        <time>2013-01-12T10:23:19Z</time>
      </trkpt>
      <trkpt lat="42.81265" lon="-0.43806">
        <ele>1855.962402</ele>
        <time>2013-01-12T10:23:40Z</time>
      </trkpt>
      <trkpt lat="42.81268" lon="-0.43828">
        <ele>1856.923828</ele>
        <time>2013-01-12T10:24:01Z</time>
      </trkpt>
      <trkpt lat="42.8127" lon="-0.4385">
        <ele>1858.846436</ele>
        <time>2013-01-12T10:24:23Z</time>
      </trkpt>
      <trkpt lat="42.81272" lon="-0.43869">
        <ele>1861.249756</ele>
        <time>2013-01-12T10:24:43Z</time>
      </trkpt>
      <trkpt lat="42.81274" lon="-0.43884">
        <ele>1863.652832</ele>
        <time>2013-01-12T10:24:59Z</time>
      </trkpt>
      <trkpt lat="42.81275" lon="-0.43902">
        <ele>1865.575684</ele>
        <time>2013-01-12T10:25:18Z</time>
      </trkpt>
      <trkpt lat="42.81278" lon="-0.43923">
        <ele>1867.017578</ele>
        <time>2013-01-12T10:25:38Z</time>
      </trkpt>
      <trkpt lat="42.8128" lon="-0.43943">
        <ele>1869.421143</ele>
        <time>2013-01-12T10:25:57Z</time>
      </trkpt>
      <trkpt lat="42.81281" lon="-0.4396">
        <ele>1870.382324</ele>
        <time>2013-01-12T10:26:14Z</time>
      </trkpt>
      <trkpt lat="42.81281" lon="-0.43981">
        <ele>1872.785645</ele>
        <time>2013-01-12T10:26:36Z</time>
      </trkpt>
      <trkpt lat="42.81281" lon="-0.43997">
        <ele>1876.150146</ele>
        <time>2013-01-12T10:26:54Z</time>
      </trkpt>
      <trkpt lat="42.81281" lon="-0.44015">
        <ele>1879.033936</ele>
        <time>2013-01-12T10:27:14Z</time>
      </trkpt>
      <trkpt lat="42.81285" lon="-0.4403">
        <ele>1882.398682</ele>
        <time>2013-01-12T10:27:35Z</time>
      </trkpt>
      <trkpt lat="42.81281" lon="-0.44048">
        <ele>1883.359863</ele>
        <time>2013-01-12T10:27:55Z</time>
      </trkpt>
      <trkpt lat="42.8128" lon="-0.44053">
        <ele>1887.205322</ele>
        <time>2013-01-12T10:28:02Z</time>
      </trkpt>
      <trkpt lat="42.81281" lon="-0.44054">
        <ele>1887.205322</ele>
        <time>2013-01-12T10:28:03Z</time>
      </trkpt>
      <trkpt lat="42.81282" lon="-0.44071">
        <ele>1887.686035</ele>
        <time>2013-01-12T10:28:22Z</time>
      </trkpt>
      <trkpt lat="42.81284" lon="-0.4409">
        <ele>1890.089355</ele>
        <time>2013-01-12T10:28:43Z</time>
      </trkpt>
      <trkpt lat="42.81277" lon="-0.44102">
        <ele>1893.453857</ele>
        <time>2013-01-12T10:29:00Z</time>
      </trkpt>
      <trkpt lat="42.81277" lon="-0.44111">
        <ele>1896.818359</ele>
        <time>2013-01-12T10:29:10Z</time>
      </trkpt>
      <trkpt lat="42.81279" lon="-0.44119">
        <ele>1899.22168</ele>
        <time>2013-01-12T10:29:20Z</time>
      </trkpt>
      <trkpt lat="42.81285" lon="-0.44131">
        <ele>1900.663818</ele>
        <time>2013-01-12T10:29:36Z</time>
      </trkpt>
      <trkpt lat="42.81289" lon="-0.44148">
        <ele>1902.105713</ele>
        <time>2013-01-12T10:29:58Z</time>
      </trkpt>
      <trkpt lat="42.8129" lon="-0.44165">
        <ele>1904.509033</ele>
        <time>2013-01-12T10:30:17Z</time>
      </trkpt>
      <trkpt lat="42.81289" lon="-0.44177">
        <ele>1907.873779</ele>
        <time>2013-01-12T10:30:31Z</time>
      </trkpt>
      <trkpt lat="42.8129" lon="-0.44191">
        <ele>1910.276855</ele>
        <time>2013-01-12T10:30:50Z</time>
      </trkpt>
      <trkpt lat="42.81291" lon="-0.44203">
        <ele>1911.718994</ele>
        <time>2013-01-12T10:31:12Z</time>
      </trkpt>
      <trkpt lat="42.81292" lon="-0.44217">
        <ele>1915.564209</ele>
        <time>2013-01-12T10:31:31Z</time>
      </trkpt>
      <trkpt lat="42.81293" lon="-0.44217">
        <ele>1916.044922</ele>
        <time>2013-01-12T10:31:33Z</time>
      </trkpt>
      <trkpt lat="42.81293" lon="-0.44218">
        <ele>1916.525635</ele>
        <time>2013-01-12T10:32:13Z</time>
      </trkpt>
      <trkpt lat="42.81291" lon="-0.44229">
        <ele>1917.967529</ele>
        <time>2013-01-12T10:32:40Z</time>
      </trkpt>
      <trkpt lat="42.81288" lon="-0.44236">
        <ele>1921.812744</ele>
        <time>2013-01-12T10:32:53Z</time>
      </trkpt>
      <trkpt lat="42.81285" lon="-0.4425">
        <ele>1925.177246</ele>
        <time>2013-01-12T10:33:11Z</time>
      </trkpt>
      <trkpt lat="42.81285" lon="-0.44251">
        <ele>1925.177246</ele>
        <time>2013-01-12T10:33:12Z</time>
      </trkpt>
      <trkpt lat="42.81285" lon="-0.44252">
        <ele>1928.541992</ele>
        <time>2013-01-12T10:33:16Z</time>
      </trkpt>
      <trkpt lat="42.81285" lon="-0.44252">
        <ele>1928.541992</ele>
        <time>2013-01-12T10:33:17Z</time>
      </trkpt>
      <trkpt lat="42.81285" lon="-0.44254">
        <ele>1924.696777</ele>
        <time>2013-01-12T10:33:21Z</time>
      </trkpt>
      <trkpt lat="42.81285" lon="-0.44255">
        <ele>1924.216064</ele>
        <time>2013-01-12T10:33:22Z</time>
      </trkpt>
      <trkpt lat="42.81285" lon="-0.44257">
        <ele>1926.138672</ele>
        <time>2013-01-12T10:33:24Z</time>
      </trkpt>
      <trkpt lat="42.81283" lon="-0.44265">
        <ele>1926.138672</ele>
        <time>2013-01-12T10:33:44Z</time>
      </trkpt>
      <trkpt lat="42.81283" lon="-0.44265">
        <ele>1928.061279</ele>
        <time>2013-01-12T10:33:50Z</time>
      </trkpt>
      <trkpt lat="42.81283" lon="-0.44265">
        <ele>1928.061279</ele>
        <time>2013-01-12T10:34:11Z</time>
      </trkpt>
      <trkpt lat="42.81284" lon="-0.44265">
        <ele>1927.100098</ele>
        <time>2013-01-12T10:34:31Z</time>
      </trkpt>
      <trkpt lat="42.81286" lon="-0.44284">
        <ele>1926.619385</ele>
        <time>2013-01-12T10:35:02Z</time>
      </trkpt>
      <trkpt lat="42.81291" lon="-0.44302">
        <ele>1924.216064</ele>
        <time>2013-01-12T10:35:18Z</time>
      </trkpt>
      <trkpt lat="42.81291" lon="-0.44327">
        <ele>1925.657959</ele>
        <time>2013-01-12T10:35:39Z</time>
      </trkpt>
      <trkpt lat="42.8129" lon="-0.44341">
        <ele>1925.657959</ele>
        <time>2013-01-12T10:35:54Z</time>
      </trkpt>
      <trkpt lat="42.8129" lon="-0.44343">
        <ele>1928.061279</ele>
        <time>2013-01-12T10:35:56Z</time>
      </trkpt>
      <trkpt lat="42.81291" lon="-0.44361">
        <ele>1928.541992</ele>
        <time>2013-01-12T10:36:13Z</time>
      </trkpt>
      <trkpt lat="42.81289" lon="-0.44386">
        <ele>1929.983887</ele>
        <time>2013-01-12T10:36:35Z</time>
      </trkpt>
      <trkpt lat="42.81289" lon="-0.44408">
        <ele>1933.348633</ele>
        <time>2013-01-12T10:36:56Z</time>
      </trkpt>
      <trkpt lat="42.81288" lon="-0.44425">
        <ele>1936.232666</ele>
        <time>2013-01-12T10:37:12Z</time>
      </trkpt>
      <trkpt lat="42.81286" lon="-0.44446">
        <ele>1936.713135</ele>
        <time>2013-01-12T10:37:32Z</time>
      </trkpt>
      <trkpt lat="42.81284" lon="-0.44466">
        <ele>1938.635986</ele>
        <time>2013-01-12T10:37:52Z</time>
      </trkpt>
      <trkpt lat="42.81282" lon="-0.44483">
        <ele>1942.000488</ele>
        <time>2013-01-12T10:38:09Z</time>
      </trkpt>
      <trkpt lat="42.81278" lon="-0.44503">
        <ele>1942.96167</ele>
        <time>2013-01-12T10:38:30Z</time>
      </trkpt>
      <trkpt lat="42.81276" lon="-0.44522">
        <ele>1945.36499</ele>
        <time>2013-01-12T10:38:51Z</time>
      </trkpt>
      <trkpt lat="42.81274" lon="-0.44539">
        <ele>1948.249023</ele>
        <time>2013-01-12T10:39:10Z</time>
      </trkpt>
      <trkpt lat="42.81273" lon="-0.44561">
        <ele>1950.171875</ele>
        <time>2013-01-12T10:39:31Z</time>
      </trkpt>
      <trkpt lat="42.81268" lon="-0.44579">
        <ele>1951.61377</ele>
        <time>2013-01-12T10:39:50Z</time>
      </trkpt>
      <trkpt lat="42.81259" lon="-0.44591">
        <ele>1954.497559</ele>
        <time>2013-01-12T10:40:07Z</time>
      </trkpt>
      <trkpt lat="42.81259" lon="-0.44592">
        <ele>1954.497559</ele>
        <time>2013-01-12T10:40:08Z</time>
      </trkpt>
      <trkpt lat="42.8125" lon="-0.44611">
        <ele>1955.939453</ele>
        <time>2013-01-12T10:40:29Z</time>
      </trkpt>
      <trkpt lat="42.81249" lon="-0.44612">
        <ele>1956.900879</ele>
        <time>2013-01-12T10:40:31Z</time>
      </trkpt>
      <trkpt lat="42.81242" lon="-0.44628">
        <ele>1958.823486</ele>
        <time>2013-01-12T10:40:50Z</time>
      </trkpt>
      <trkpt lat="42.81235" lon="-0.44649">
        <ele>1959.784668</ele>
        <time>2013-01-12T10:41:10Z</time>
      </trkpt>
      <trkpt lat="42.81228" lon="-0.4467">
        <ele>1960.746094</ele>
        <time>2013-01-12T10:41:31Z</time>
      </trkpt>
      <trkpt lat="42.81222" lon="-0.44685">
        <ele>1962.668701</ele>
        <time>2013-01-12T10:41:47Z</time>
      </trkpt>
      <trkpt lat="42.81216" lon="-0.44703">
        <ele>1965.072266</ele>
        <time>2013-01-12T10:42:06Z</time>
      </trkpt>
      <trkpt lat="42.8121" lon="-0.4472">
        <ele>1965.552979</ele>
        <time>2013-01-12T10:42:26Z</time>
      </trkpt>
      <trkpt lat="42.81205" lon="-0.44735">
        <ele>1967.956055</ele>
        <time>2013-01-12T10:42:45Z</time>
      </trkpt>
      <trkpt lat="42.81202" lon="-0.44747">
        <ele>1969.398193</ele>
        <time>2013-01-12T10:43:01Z</time>
      </trkpt>
      <trkpt lat="42.81196" lon="-0.44764">
        <ele>1971.320557</ele>
        <time>2013-01-12T10:43:21Z</time>
      </trkpt>
      <trkpt lat="42.81189" lon="-0.4478">
        <ele>1973.243408</ele>
        <time>2013-01-12T10:43:40Z</time>
      </trkpt>
      <trkpt lat="42.81183" lon="-0.44793">
        <ele>1974.685303</ele>
        <time>2013-01-12T10:43:56Z</time>
      </trkpt>
      <trkpt lat="42.81179" lon="-0.44807">
        <ele>1976.60791</ele>
        <time>2013-01-12T10:44:13Z</time>
      </trkpt>
      <trkpt lat="42.81176" lon="-0.4482">
        <ele>1977.569092</ele>
        <time>2013-01-12T10:44:30Z</time>
      </trkpt>
      <trkpt lat="42.81173" lon="-0.44832">
        <ele>1979.491699</ele>
        <time>2013-01-12T10:44:44Z</time>
      </trkpt>
      <trkpt lat="42.8117" lon="-0.44848">
        <ele>1981.414551</ele>
        <time>2013-01-12T10:45:00Z</time>
      </trkpt>
      <trkpt lat="42.8117" lon="-0.44858">
        <ele>1982.856445</ele>
        <time>2013-01-12T10:45:10Z</time>
      </trkpt>
      <trkpt lat="42.81169" lon="-0.4486">
        <ele>1982.856445</ele>
        <time>2013-01-12T10:45:15Z</time>
      </trkpt>
      <trkpt lat="42.81162" lon="-0.44876">
        <ele>1985.740479</ele>
        <time>2013-01-12T10:45:34Z</time>
      </trkpt>
      <trkpt lat="42.81161" lon="-0.44879">
        <ele>1986.70166</ele>
        <time>2013-01-12T10:45:41Z</time>
      </trkpt>
      <trkpt lat="42.81157" lon="-0.44892">
        <ele>1987.663086</ele>
        <time>2013-01-12T10:45:57Z</time>
      </trkpt>
      <trkpt lat="42.81154" lon="-0.44898">
        <ele>1990.066406</ele>
        <time>2013-01-12T10:46:11Z</time>
      </trkpt>
      <trkpt lat="42.81147" lon="-0.44912">
        <ele>1992.950195</ele>
        <time>2013-01-12T10:46:30Z</time>
      </trkpt>
      <trkpt lat="42.81137" lon="-0.44923">
        <ele>1994.39209</ele>
        <time>2013-01-12T10:46:49Z</time>
      </trkpt>
      <trkpt lat="42.81127" lon="-0.44938">
        <ele>1995.353516</ele>
        <time>2013-01-12T10:47:09Z</time>
      </trkpt>
      <trkpt lat="42.81119" lon="-0.44954">
        <ele>1996.795654</ele>
        <time>2013-01-12T10:47:29Z</time>
      </trkpt>
      <trkpt lat="42.81116" lon="-0.44959">
        <ele>1997.276367</ele>
        <time>2013-01-12T10:47:35Z</time>
      </trkpt>
      <trkpt lat="42.81108" lon="-0.44975">
        <ele>1998.237549</ele>
        <time>2013-01-12T10:47:55Z</time>
      </trkpt>
      <trkpt lat="42.81104" lon="-0.44987">
        <ele>2000.1604</ele>
        <time>2013-01-12T10:48:11Z</time>
      </trkpt>
      <trkpt lat="42.81098" lon="-0.45008">
        <ele>2002.082764</ele>
        <time>2013-01-12T10:48:30Z</time>
      </trkpt>
      <trkpt lat="42.81095" lon="-0.45022">
        <ele>2004.966797</ele>
        <time>2013-01-12T10:48:46Z</time>
      </trkpt>
      <trkpt lat="42.8109" lon="-0.4504">
        <ele>2004.005615</ele>
        <time>2013-01-12T10:49:05Z</time>
      </trkpt>
      <trkpt lat="42.81084" lon="-0.45058">
        <ele>2005.927979</ele>
        <time>2013-01-12T10:49:25Z</time>
      </trkpt>
      <trkpt lat="42.8108" lon="-0.45074">
        <ele>2007.370117</ele>
        <time>2013-01-12T10:49:45Z</time>
      </trkpt>
      <trkpt lat="42.81077" lon="-0.45082">
        <ele>2009.773193</ele>
        <time>2013-01-12T10:49:56Z</time>
      </trkpt>
      <trkpt lat="42.8107" lon="-0.45093">
        <ele>2010.734619</ele>
        <time>2013-01-12T10:50:13Z</time>
      </trkpt>
      <trkpt lat="42.8106" lon="-0.45103">
        <ele>2012.657471</ele>
        <time>2013-01-12T10:50:32Z</time>
      </trkpt>
      <trkpt lat="42.81051" lon="-0.45112">
        <ele>2014.580078</ele>
        <time>2013-01-12T10:50:49Z</time>
      </trkpt>
      <trkpt lat="42.81049" lon="-0.45115">
        <ele>2015.060791</ele>
        <time>2013-01-12T10:51:16Z</time>
      </trkpt>
      <trkpt lat="42.81041" lon="-0.45125">
        <ele>2016.502686</ele>
        <time>2013-01-12T10:51:36Z</time>
      </trkpt>
      <trkpt lat="42.81032" lon="-0.4514">
        <ele>2017.94458</ele>
        <time>2013-01-12T10:51:58Z</time>
      </trkpt>
      <trkpt lat="42.81023" lon="-0.45154">
        <ele>2020.828613</ele>
        <time>2013-01-12T10:52:20Z</time>
      </trkpt>
      <trkpt lat="42.81013" lon="-0.45164">
        <ele>2021.789795</ele>
        <time>2013-01-12T10:52:39Z</time>
      </trkpt>
      <trkpt lat="42.81007" lon="-0.4517">
        <ele>2024.673828</ele>
        <time>2013-01-12T10:52:50Z</time>
      </trkpt>
      <trkpt lat="42.80996" lon="-0.45181">
        <ele>2027.557617</ele>
        <time>2013-01-12T10:53:12Z</time>
      </trkpt>
      <trkpt lat="42.80987" lon="-0.45192">
        <ele>2030.441895</ele>
        <time>2013-01-12T10:53:31Z</time>
      </trkpt>
      <trkpt lat="42.80978" lon="-0.45202">
        <ele>2032.844971</ele>
        <time>2013-01-12T10:53:49Z</time>
      </trkpt>
      <trkpt lat="42.80972" lon="-0.45208">
        <ele>2035.729004</ele>
        <time>2013-01-12T10:54:01Z</time>
      </trkpt>
      <trkpt lat="42.80961" lon="-0.45217">
        <ele>2038.613037</ele>
        <time>2013-01-12T10:54:22Z</time>
      </trkpt>
      <trkpt lat="42.80954" lon="-0.45223">
        <ele>2042.458252</ele>
        <time>2013-01-12T10:54:36Z</time>
      </trkpt>
      <trkpt lat="42.80944" lon="-0.45229">
        <ele>2045.342285</ele>
        <time>2013-01-12T10:54:57Z</time>
      </trkpt>
      <trkpt lat="42.80937" lon="-0.45236">
        <ele>2046.303711</ele>
        <time>2013-01-12T10:55:15Z</time>
      </trkpt>
      <trkpt lat="42.80927" lon="-0.45244">
        <ele>2048.706787</ele>
        <time>2013-01-12T10:55:35Z</time>
      </trkpt>
      <trkpt lat="42.80915" lon="-0.45251">
        <ele>2052.071289</ele>
        <time>2013-01-12T10:55:56Z</time>
      </trkpt>
      <trkpt lat="42.80912" lon="-0.45255">
        <ele>2053.994141</ele>
        <time>2013-01-12T10:56:03Z</time>
      </trkpt>
      <trkpt lat="42.80901" lon="-0.45265">
        <ele>2056.87793</ele>
        <time>2013-01-12T10:56:25Z</time>
      </trkpt>
      <trkpt lat="42.80889" lon="-0.45274">
        <ele>2056.87793</ele>
        <time>2013-01-12T10:56:45Z</time>
      </trkpt>
      <trkpt lat="42.80879" lon="-0.45283">
        <ele>2059.761719</ele>
        <time>2013-01-12T10:57:04Z</time>
      </trkpt>
      <trkpt lat="42.80871" lon="-0.45295">
        <ele>2061.204102</ele>
        <time>2013-01-12T10:57:23Z</time>
      </trkpt>
      <trkpt lat="42.80867" lon="-0.45305">
        <ele>2063.126709</ele>
        <time>2013-01-12T10:57:40Z</time>
      </trkpt>
      <trkpt lat="42.8086" lon="-0.4532">
        <ele>2065.049316</ele>
        <time>2013-01-12T10:57:57Z</time>
      </trkpt>
      <trkpt lat="42.80855" lon="-0.45336">
        <ele>2066.971924</ele>
        <time>2013-01-12T10:58:17Z</time>
      </trkpt>
      <trkpt lat="42.80858" lon="-0.4535">
        <ele>2067.452393</ele>
        <time>2013-01-12T10:58:33Z</time>
      </trkpt>
      <trkpt lat="42.8086" lon="-0.45361">
        <ele>2070.817139</ele>
        <time>2013-01-12T10:58:47Z</time>
      </trkpt>
      <trkpt lat="42.80857" lon="-0.45376">
        <ele>2072.259033</ele>
        <time>2013-01-12T10:59:07Z</time>
      </trkpt>
      <trkpt lat="42.8086" lon="-0.45386">
        <ele>2075.623535</ele>
        <time>2013-01-12T10:59:25Z</time>
      </trkpt>
      <trkpt lat="42.80869" lon="-0.45394">
        <ele>2078.988281</ele>
        <time>2013-01-12T10:59:43Z</time>
      </trkpt>
      <trkpt lat="42.80873" lon="-0.45404">
        <ele>2080.911133</ele>
        <time>2013-01-12T11:00:02Z</time>
      </trkpt>
      <trkpt lat="42.80873" lon="-0.45404">
        <ele>2078.988281</ele>
        <time>2013-01-12T11:00:44Z</time>
      </trkpt>
      <trkpt lat="42.80873" lon="-0.45404">
        <ele>2077.546387</ele>
        <time>2013-01-12T11:00:49Z</time>
      </trkpt>
      <trkpt lat="42.80873" lon="-0.45405">
        <ele>2080.911133</ele>
        <time>2013-01-12T11:00:55Z</time>
      </trkpt>
      <trkpt lat="42.80873" lon="-0.45404">
        <ele>2082.353027</ele>
        <time>2013-01-12T11:00:57Z</time>
      </trkpt>
      <trkpt lat="42.80875" lon="-0.45404">
        <ele>2080.911133</ele>
        <time>2013-01-12T11:01:46Z</time>
      </trkpt>
      <trkpt lat="42.80875" lon="-0.45407">
        <ele>2081.391602</ele>
        <time>2013-01-12T11:02:59Z</time>
      </trkpt>
      <trkpt lat="42.80875" lon="-0.45411">
        <ele>2081.872314</ele>
        <time>2013-01-12T11:03:16Z</time>
      </trkpt>
      <trkpt lat="42.80875" lon="-0.45427">
        <ele>2081.391602</ele>
        <time>2013-01-12T11:03:38Z</time>
      </trkpt>
      <trkpt lat="42.80878" lon="-0.45448">
        <ele>2081.872314</ele>
        <time>2013-01-12T11:03:59Z</time>
      </trkpt>
      <trkpt lat="42.80879" lon="-0.45465">
        <ele>2084.756348</ele>
        <time>2013-01-12T11:04:18Z</time>
      </trkpt>
      <trkpt lat="42.80879" lon="-0.45467">
        <ele>2086.198242</ele>
        <time>2013-01-12T11:04:21Z</time>
      </trkpt>
      <trkpt lat="42.80879" lon="-0.45471">
        <ele>2083.314209</ele>
        <time>2013-01-12T11:04:42Z</time>
      </trkpt>
      <trkpt lat="42.80874" lon="-0.45486">
        <ele>2086.678711</ele>
        <time>2013-01-12T11:04:59Z</time>
      </trkpt>
      <trkpt lat="42.80867" lon="-0.45505">
        <ele>2086.678711</ele>
        <time>2013-01-12T11:05:19Z</time>
      </trkpt>
      <trkpt lat="42.80864" lon="-0.45523">
        <ele>2087.159424</ele>
        <time>2013-01-12T11:05:37Z</time>
      </trkpt>
      <trkpt lat="42.80861" lon="-0.45548">
        <ele>2086.678711</ele>
        <time>2013-01-12T11:05:59Z</time>
      </trkpt>
      <trkpt lat="42.8086" lon="-0.45573">
        <ele>2087.640137</ele>
        <time>2013-01-12T11:06:21Z</time>
      </trkpt>
      <trkpt lat="42.8086" lon="-0.45589">
        <ele>2090.043457</ele>
        <time>2013-01-12T11:06:41Z</time>
      </trkpt>
      <trkpt lat="42.80858" lon="-0.45604">
        <ele>2091.966064</ele>
        <time>2013-01-12T11:07:00Z</time>
      </trkpt>
      <trkpt lat="42.80855" lon="-0.45621">
        <ele>2094.369385</ele>
        <time>2013-01-12T11:07:22Z</time>
      </trkpt>
      <trkpt lat="42.80852" lon="-0.45637">
        <ele>2095.330811</ele>
        <time>2013-01-12T11:07:43Z</time>
      </trkpt>
      <trkpt lat="42.80851" lon="-0.45652">
        <ele>2097.253418</ele>
        <time>2013-01-12T11:07:59Z</time>
      </trkpt>
      <trkpt lat="42.80852" lon="-0.45671">
        <ele>2098.695312</ele>
        <time>2013-01-12T11:08:17Z</time>
      </trkpt>
      <trkpt lat="42.8085" lon="-0.45687">
        <ele>2101.579346</ele>
        <time>2013-01-12T11:08:37Z</time>
      </trkpt>
      <trkpt lat="42.80846" lon="-0.45703">
        <ele>2102.059814</ele>
        <time>2013-01-12T11:08:58Z</time>
      </trkpt>
      <trkpt lat="42.80844" lon="-0.45711">
        <ele>2102.540527</ele>
        <time>2013-01-12T11:09:16Z</time>
      </trkpt>
      <trkpt lat="42.80848" lon="-0.45711">
        <ele>2102.540527</ele>
        <time>2013-01-12T11:11:20Z</time>
      </trkpt>
      <trkpt lat="42.80848" lon="-0.45713">
        <ele>2102.059814</ele>
        <time>2013-01-12T11:11:32Z</time>
      </trkpt>
      <trkpt lat="42.80848" lon="-0.45713">
        <ele>2102.540527</ele>
        <time>2013-01-12T11:11:50Z</time>
      </trkpt>
      <trkpt lat="42.8085" lon="-0.45708">
        <ele>2102.540527</ele>
        <time>2013-01-12T11:12:05Z</time>
      </trkpt>
      <trkpt lat="42.80852" lon="-0.45696">
        <ele>2103.02124</ele>
        <time>2013-01-12T11:12:22Z</time>
      </trkpt>
      <trkpt lat="42.80855" lon="-0.45679">
        <ele>2101.098633</ele>
        <time>2013-01-12T11:12:39Z</time>
      </trkpt>
      <trkpt lat="42.80856" lon="-0.45667">
        <ele>2098.695312</ele>
        <time>2013-01-12T11:12:50Z</time>
      </trkpt>
      <trkpt lat="42.80856" lon="-0.45645">
        <ele>2096.292236</ele>
        <time>2013-01-12T11:13:11Z</time>
      </trkpt>
      <trkpt lat="42.80858" lon="-0.4563">
        <ele>2096.292236</ele>
        <time>2013-01-12T11:13:36Z</time>
      </trkpt>
      <trkpt lat="42.80862" lon="-0.45608">
        <ele>2094.369385</ele>
        <time>2013-01-12T11:13:58Z</time>
      </trkpt>
      <trkpt lat="42.80864" lon="-0.45595">
        <ele>2091.004639</ele>
        <time>2013-01-12T11:14:09Z</time>
      </trkpt>
      <trkpt lat="42.80865" lon="-0.45568">
        <ele>2088.12085</ele>
        <time>2013-01-12T11:14:32Z</time>
      </trkpt>
      <trkpt lat="42.80867" lon="-0.45541">
        <ele>2086.678711</ele>
        <time>2013-01-12T11:14:53Z</time>
      </trkpt>
      <trkpt lat="42.80871" lon="-0.45516">
        <ele>2086.678711</ele>
        <time>2013-01-12T11:15:14Z</time>
      </trkpt>
      <trkpt lat="42.80876" lon="-0.455">
        <ele>2087.159424</ele>
        <time>2013-01-12T11:15:32Z</time>
      </trkpt>
      <trkpt lat="42.8088" lon="-0.45489">
        <ele>2086.678711</ele>
        <time>2013-01-12T11:15:50Z</time>
      </trkpt>
      <trkpt lat="42.80882" lon="-0.4548">
        <ele>2086.198242</ele>
        <time>2013-01-12T11:16:06Z</time>
      </trkpt>
      <trkpt lat="42.80883" lon="-0.45455">
        <ele>2084.756348</ele>
        <time>2013-01-12T11:16:30Z</time>
      </trkpt>
      <trkpt lat="42.80882" lon="-0.45448">
        <ele>2083.794922</ele>
        <time>2013-01-12T11:16:36Z</time>
      </trkpt>
      <trkpt lat="42.8088" lon="-0.45428">
        <ele>2083.314209</ele>
        <time>2013-01-12T11:16:52Z</time>
      </trkpt>
      <trkpt lat="42.80879" lon="-0.45411">
        <ele>2081.872314</ele>
        <time>2013-01-12T11:17:09Z</time>
      </trkpt>
      <trkpt lat="42.80877" lon="-0.45405">
        <ele>2081.391602</ele>
        <time>2013-01-12T11:17:14Z</time>
      </trkpt>
      <trkpt lat="42.80874" lon="-0.45399">
        <ele>2079.468994</ele>
        <time>2013-01-12T11:17:20Z</time>
      </trkpt>
      <trkpt lat="42.80864" lon="-0.45387">
        <ele>2076.585205</ele>
        <time>2013-01-12T11:17:36Z</time>
      </trkpt>
      <trkpt lat="42.80864" lon="-0.45372">
        <ele>2073.220459</ele>
        <time>2013-01-12T11:17:52Z</time>
      </trkpt>
      <trkpt lat="42.80864" lon="-0.45372">
        <ele>2072.739746</ele>
        <time>2013-01-12T11:17:53Z</time>
      </trkpt>
      <trkpt lat="42.80865" lon="-0.45357">
        <ele>2070.336426</ele>
        <time>2013-01-12T11:18:06Z</time>
      </trkpt>
      <trkpt lat="42.80864" lon="-0.45352">
        <ele>2068.894531</ele>
        <time>2013-01-12T11:18:10Z</time>
      </trkpt>
      <trkpt lat="42.80863" lon="-0.45349">
        <ele>2066.971924</ele>
        <time>2013-01-12T11:18:13Z</time>
      </trkpt>
      <trkpt lat="42.80862" lon="-0.45325">
        <ele>2065.530029</ele>
        <time>2013-01-12T11:18:33Z</time>
      </trkpt>
      <trkpt lat="42.80862" lon="-0.45323">
        <ele>2065.530029</ele>
        <time>2013-01-12T11:18:35Z</time>
      </trkpt>
      <trkpt lat="42.8087" lon="-0.45304">
        <ele>2061.684814</ele>
        <time>2013-01-12T11:18:53Z</time>
      </trkpt>
      <trkpt lat="42.80881" lon="-0.45285">
        <ele>2058.800537</ele>
        <time>2013-01-12T11:19:13Z</time>
      </trkpt>
      <trkpt lat="42.80891" lon="-0.45276">
        <ele>2057.839355</ele>
        <time>2013-01-12T11:19:30Z</time>
      </trkpt>
      <trkpt lat="42.80904" lon="-0.45266">
        <ele>2055.916504</ele>
        <time>2013-01-12T11:19:49Z</time>
      </trkpt>
      <trkpt lat="42.80914" lon="-0.45258">
        <ele>2053.513428</ele>
        <time>2013-01-12T11:20:06Z</time>
      </trkpt>
      <trkpt lat="42.80922" lon="-0.4525">
        <ele>2050.148926</ele>
        <time>2013-01-12T11:20:25Z</time>
      </trkpt>
      <trkpt lat="42.80922" lon="-0.4525">
        <ele>2049.1875</ele>
        <time>2013-01-12T11:20:34Z</time>
      </trkpt>
      <trkpt lat="42.80929" lon="-0.45243">
        <ele>2048.226074</ele>
        <time>2013-01-12T11:21:03Z</time>
      </trkpt>
      <trkpt lat="42.80937" lon="-0.45238">
        <ele>2046.303711</ele>
        <time>2013-01-12T11:21:19Z</time>
      </trkpt>
      <trkpt lat="42.80947" lon="-0.45229">
        <ele>2043.419434</ele>
        <time>2013-01-12T11:21:37Z</time>
      </trkpt>
      <trkpt lat="42.80947" lon="-0.45217">
        <ele>2041.977539</ele>
        <time>2013-01-12T11:21:50Z</time>
      </trkpt>
      <trkpt lat="42.80958" lon="-0.45198">
        <ele>2040.054932</ele>
        <time>2013-01-12T11:22:12Z</time>
      </trkpt>
      <trkpt lat="42.80962" lon="-0.45198">
        <ele>2038.613037</ele>
        <time>2013-01-12T11:22:25Z</time>
      </trkpt>
      <trkpt lat="42.8097" lon="-0.45199">
        <ele>2035.248291</ele>
        <time>2013-01-12T11:22:37Z</time>
      </trkpt>
      <trkpt lat="42.80971" lon="-0.45199">
        <ele>2035.729004</ele>
        <time>2013-01-12T11:22:38Z</time>
      </trkpt>
      <trkpt lat="42.80976" lon="-0.45198">
        <ele>2032.364502</ele>
        <time>2013-01-12T11:22:47Z</time>
      </trkpt>
      <trkpt lat="42.80986" lon="-0.45195">
        <ele>2028.999756</ele>
        <time>2013-01-12T11:23:04Z</time>
      </trkpt>
      <trkpt lat="42.80996" lon="-0.45189">
        <ele>2025.63501</ele>
        <time>2013-01-12T11:23:20Z</time>
      </trkpt>
      <trkpt lat="42.81007" lon="-0.45177">
        <ele>2024.193115</ele>
        <time>2013-01-12T11:23:41Z</time>
      </trkpt>
      <trkpt lat="42.81011" lon="-0.45172">
        <ele>2021.309082</ele>
        <time>2013-01-12T11:23:48Z</time>
      </trkpt>
      <trkpt lat="42.8102" lon="-0.45161">
        <ele>2018.906006</ele>
        <time>2013-01-12T11:24:05Z</time>
      </trkpt>
      <trkpt lat="42.81022" lon="-0.45158">
        <ele>2016.983398</ele>
        <time>2013-01-12T11:24:20Z</time>
      </trkpt>
      <trkpt lat="42.81021" lon="-0.45155">
        <ele>2017.463867</ele>
        <time>2013-01-12T11:24:51Z</time>
      </trkpt>
      <trkpt lat="42.81025" lon="-0.45157">
        <ele>2017.94458</ele>
        <time>2013-01-12T11:25:39Z</time>
      </trkpt>
      <trkpt lat="42.81036" lon="-0.45144">
        <ele>2014.580078</ele>
        <time>2013-01-12T11:25:58Z</time>
      </trkpt>
      <trkpt lat="42.81042" lon="-0.45133">
        <ele>2011.215332</ele>
        <time>2013-01-12T11:26:10Z</time>
      </trkpt>
      <trkpt lat="42.81052" lon="-0.4512">
        <ele>2008.331299</ele>
        <time>2013-01-12T11:26:27Z</time>
      </trkpt>
      <trkpt lat="42.8106" lon="-0.45113">
        <ele>2005.44751</ele>
        <time>2013-01-12T11:26:41Z</time>
      </trkpt>
      <trkpt lat="42.81074" lon="-0.45108">
        <ele>2003.044189</ele>
        <time>2013-01-12T11:27:01Z</time>
      </trkpt>
      <trkpt lat="42.81078" lon="-0.45102">
        <ele>2002.563477</ele>
        <time>2013-01-12T11:27:15Z</time>
      </trkpt>
      <trkpt lat="42.81084" lon="-0.45083">
        <ele>2002.082764</ele>
        <time>2013-01-12T11:27:35Z</time>
      </trkpt>
      <trkpt lat="42.81087" lon="-0.45067">
        <ele>1999.679688</ele>
        <time>2013-01-12T11:27:51Z</time>
      </trkpt>
      <trkpt lat="42.81088" lon="-0.45063">
        <ele>1999.198975</ele>
        <time>2013-01-12T11:27:55Z</time>
      </trkpt>
      <trkpt lat="42.81097" lon="-0.45038">
        <ele>1996.795654</ele>
        <time>2013-01-12T11:28:17Z</time>
      </trkpt>
      <trkpt lat="42.81102" lon="-0.45013">
        <ele>1994.872803</ele>
        <time>2013-01-12T11:28:37Z</time>
      </trkpt>
      <trkpt lat="42.81109" lon="-0.44989">
        <ele>1992.469727</ele>
        <time>2013-01-12T11:28:57Z</time>
      </trkpt>
      <trkpt lat="42.81117" lon="-0.44967">
        <ele>1991.508301</ele>
        <time>2013-01-12T11:29:15Z</time>
      </trkpt>
      <trkpt lat="42.81129" lon="-0.44949">
        <ele>1991.027588</ele>
        <time>2013-01-12T11:29:34Z</time>
      </trkpt>
      <trkpt lat="42.81141" lon="-0.44922">
        <ele>1989.585693</ele>
        <time>2013-01-12T11:29:58Z</time>
      </trkpt>
      <trkpt lat="42.81148" lon="-0.44908">
        <ele>1988.143799</ele>
        <time>2013-01-12T11:30:17Z</time>
      </trkpt>
      <trkpt lat="42.8116" lon="-0.44887">
        <ele>1985.259766</ele>
        <time>2013-01-12T11:30:38Z</time>
      </trkpt>
      <trkpt lat="42.81165" lon="-0.44873">
        <ele>1981.895264</ele>
        <time>2013-01-12T11:30:52Z</time>
      </trkpt>
      <trkpt lat="42.81171" lon="-0.44857">
        <ele>1979.010986</ele>
        <time>2013-01-12T11:31:05Z</time>
      </trkpt>
      <trkpt lat="42.81179" lon="-0.44834">
        <ele>1976.127197</ele>
        <time>2013-01-12T11:31:24Z</time>
      </trkpt>
      <trkpt lat="42.81183" lon="-0.44816">
        <ele>1972.762695</ele>
        <time>2013-01-12T11:31:38Z</time>
      </trkpt>
      <trkpt lat="42.81186" lon="-0.44797">
        <ele>1970.840088</ele>
        <time>2013-01-12T11:31:53Z</time>
      </trkpt>
      <trkpt lat="42.81194" lon="-0.44774">
        <ele>1968.91748</ele>
        <time>2013-01-12T11:32:15Z</time>
      </trkpt>
      <trkpt lat="42.812" lon="-0.44762">
        <ele>1966.994873</ele>
        <time>2013-01-12T11:32:32Z</time>
      </trkpt>
      <trkpt lat="42.81203" lon="-0.44748">
        <ele>1965.552979</ele>
        <time>2013-01-12T11:32:54Z</time>
      </trkpt>
      <trkpt lat="42.81209" lon="-0.4473">
        <ele>1963.629883</ele>
        <time>2013-01-12T11:33:13Z</time>
      </trkpt>
      <trkpt lat="42.81213" lon="-0.44714">
        <ele>1961.70752</ele>
        <time>2013-01-12T11:33:33Z</time>
      </trkpt>
      <trkpt lat="42.81216" lon="-0.44707">
        <ele>1960.265381</ele>
        <time>2013-01-12T11:33:40Z</time>
      </trkpt>
      <trkpt lat="42.81223" lon="-0.44686">
        <ele>1958.342773</ele>
        <time>2013-01-12T11:34:00Z</time>
      </trkpt>
      <trkpt lat="42.81227" lon="-0.44676">
        <ele>1957.381592</ele>
        <time>2013-01-12T11:34:10Z</time>
      </trkpt>
      <trkpt lat="42.81231" lon="-0.44664">
        <ele>1957.381592</ele>
        <time>2013-01-12T11:34:24Z</time>
      </trkpt>
      <trkpt lat="42.8124" lon="-0.44638">
        <ele>1956.420166</ele>
        <time>2013-01-12T11:34:47Z</time>
      </trkpt>
      <trkpt lat="42.81246" lon="-0.44614">
        <ele>1955.939453</ele>
        <time>2013-01-12T11:35:07Z</time>
      </trkpt>
      <trkpt lat="42.81254" lon="-0.44601">
        <ele>1953.536377</ele>
        <time>2013-01-12T11:35:21Z</time>
      </trkpt>
      <trkpt lat="42.81257" lon="-0.4459">
        <ele>1950.652344</ele>
        <time>2013-01-12T11:35:31Z</time>
      </trkpt>
      <trkpt lat="42.81269" lon="-0.44571">
        <ele>1948.249023</ele>
        <time>2013-01-12T11:35:52Z</time>
      </trkpt>
      <trkpt lat="42.81276" lon="-0.44547">
        <ele>1944.884277</ele>
        <time>2013-01-12T11:36:13Z</time>
      </trkpt>
      <trkpt lat="42.81278" lon="-0.44526">
        <ele>1941.519775</ele>
        <time>2013-01-12T11:36:31Z</time>
      </trkpt>
      <trkpt lat="42.8128" lon="-0.44508">
        <ele>1938.635986</ele>
        <time>2013-01-12T11:36:47Z</time>
      </trkpt>
      <trkpt lat="42.81283" lon="-0.44486">
        <ele>1937.193848</ele>
        <time>2013-01-12T11:37:06Z</time>
      </trkpt>
      <trkpt lat="42.81285" lon="-0.44461">
        <ele>1934.790771</ele>
        <time>2013-01-12T11:37:26Z</time>
      </trkpt>
      <trkpt lat="42.81287" lon="-0.44435">
        <ele>1931.906494</ele>
        <time>2013-01-12T11:37:46Z</time>
      </trkpt>
      <trkpt lat="42.81289" lon="-0.44413">
        <ele>1929.022461</ele>
        <time>2013-01-12T11:38:02Z</time>
      </trkpt>
      <trkpt lat="42.81291" lon="-0.44392">
        <ele>1926.619385</ele>
        <time>2013-01-12T11:38:19Z</time>
      </trkpt>
      <trkpt lat="42.81292" lon="-0.44363">
        <ele>1924.216064</ele>
        <time>2013-01-12T11:38:41Z</time>
      </trkpt>
      <trkpt lat="42.81292" lon="-0.44333">
        <ele>1922.293457</ele>
        <time>2013-01-12T11:39:01Z</time>
      </trkpt>
      <trkpt lat="42.81295" lon="-0.44303">
        <ele>1921.332031</ele>
        <time>2013-01-12T11:39:21Z</time>
      </trkpt>
      <trkpt lat="42.81294" lon="-0.44275">
        <ele>1923.735352</ele>
        <time>2013-01-12T11:39:41Z</time>
      </trkpt>
      <trkpt lat="42.81297" lon="-0.44258">
        <ele>1924.696777</ele>
        <time>2013-01-12T11:39:58Z</time>
      </trkpt>
      <trkpt lat="42.81299" lon="-0.44253">
        <ele>1925.177246</ele>
        <time>2013-01-12T11:40:03Z</time>
      </trkpt>
      <trkpt lat="42.81312" lon="-0.44249">
        <ele>1926.619385</ele>
        <time>2013-01-12T11:40:21Z</time>
      </trkpt>
      <trkpt lat="42.81322" lon="-0.44247">
        <ele>1929.022461</ele>
        <time>2013-01-12T11:40:42Z</time>
      </trkpt>
      <trkpt lat="42.8132" lon="-0.44247">
        <ele>1925.657959</ele>
        <time>2013-01-12T11:40:52Z</time>
      </trkpt>
      <trkpt lat="42.8132" lon="-0.44248">
        <ele>1925.657959</ele>
        <time>2013-01-12T11:40:53Z</time>
      </trkpt>
      <trkpt lat="42.81315" lon="-0.44251">
        <ele>1929.022461</ele>
        <time>2013-01-12T11:41:03Z</time>
      </trkpt>
      <trkpt lat="42.81315" lon="-0.44251">
        <ele>1929.022461</ele>
        <time>2013-01-12T11:41:04Z</time>
      </trkpt>
      <trkpt lat="42.81315" lon="-0.4425">
        <ele>1926.138672</ele>
        <time>2013-01-12T11:41:24Z</time>
      </trkpt>
      <trkpt lat="42.81311" lon="-0.4425">
        <ele>1927.580566</ele>
        <time>2013-01-12T11:41:37Z</time>
      </trkpt>
      <trkpt lat="42.81309" lon="-0.4425">
        <ele>1925.177246</ele>
        <time>2013-01-12T11:41:50Z</time>
      </trkpt>
      <trkpt lat="42.81296" lon="-0.44252">
        <ele>1922.77417</ele>
        <time>2013-01-12T11:42:09Z</time>
      </trkpt>
      <trkpt lat="42.81286" lon="-0.44241">
        <ele>1919.890137</ele>
        <time>2013-01-12T11:42:30Z</time>
      </trkpt>
      <trkpt lat="42.81291" lon="-0.44225">
        <ele>1916.044922</ele>
        <time>2013-01-12T11:42:51Z</time>
      </trkpt>
      <trkpt lat="42.81293" lon="-0.44214">
        <ele>1912.199463</ele>
        <time>2013-01-12T11:43:04Z</time>
      </trkpt>
      <trkpt lat="42.81292" lon="-0.44202">
        <ele>1909.796143</ele>
        <time>2013-01-12T11:43:16Z</time>
      </trkpt>
      <trkpt lat="42.81294" lon="-0.44188">
        <ele>1906.912354</ele>
        <time>2013-01-12T11:43:33Z</time>
      </trkpt>
      <trkpt lat="42.81303" lon="-0.44174">
        <ele>1908.354248</ele>
        <time>2013-01-12T11:43:54Z</time>
      </trkpt>
      <trkpt lat="42.81306" lon="-0.44176">
        <ele>1908.834961</ele>
        <time>2013-01-12T11:44:17Z</time>
      </trkpt>
      <trkpt lat="42.81308" lon="-0.44175">
        <ele>1908.834961</ele>
        <time>2013-01-12T11:44:38Z</time>
      </trkpt>
      <trkpt lat="42.81308" lon="-0.44176">
        <ele>1909.315674</ele>
        <time>2013-01-12T11:45:32Z</time>
      </trkpt>
      <trkpt lat="42.81309" lon="-0.44174">
        <ele>1909.315674</ele>
        <time>2013-01-12T11:46:25Z</time>
      </trkpt>
      <trkpt lat="42.81309" lon="-0.44176">
        <ele>1910.276855</ele>
        <time>2013-01-12T11:49:36Z</time>
      </trkpt>
      <trkpt lat="42.81308" lon="-0.44176">
        <ele>1911.238281</ele>
        <time>2013-01-12T11:50:24Z</time>
      </trkpt>
      <trkpt lat="42.81309" lon="-0.44176">
        <ele>1910.276855</ele>
        <time>2013-01-12T11:50:37Z</time>
      </trkpt>
      <trkpt lat="42.81307" lon="-0.44175">
        <ele>1912.199463</ele>
        <time>2013-01-12T11:51:47Z</time>
      </trkpt>
      <trkpt lat="42.81307" lon="-0.44176">
        <ele>1911.238281</ele>
        <time>2013-01-12T11:53:00Z</time>
      </trkpt>
      <trkpt lat="42.81307" lon="-0.44175">
        <ele>1909.796143</ele>
        <time>2013-01-12T11:53:14Z</time>
      </trkpt>
      <trkpt lat="42.81307" lon="-0.44174">
        <ele>1911.238281</ele>
        <time>2013-01-12T11:55:48Z</time>
      </trkpt>
      <trkpt lat="42.81307" lon="-0.44176">
        <ele>1916.044922</ele>
        <time>2013-01-12T12:03:42Z</time>
      </trkpt>
      <trkpt lat="42.81307" lon="-0.44176">
        <ele>1915.083496</ele>
        <time>2013-01-12T12:03:43Z</time>
      </trkpt>
      <trkpt lat="42.81306" lon="-0.44175">
        <ele>1913.160889</ele>
        <time>2013-01-12T12:12:14Z</time>
      </trkpt>
      <trkpt lat="42.8131" lon="-0.44177">
        <ele>1913.160889</ele>
        <time>2013-01-12T12:13:10Z</time>
      </trkpt>
      <trkpt lat="42.81313" lon="-0.44176">
        <ele>1913.160889</ele>
        <time>2013-01-12T12:13:47Z</time>
      </trkpt>
      <trkpt lat="42.8131" lon="-0.44176">
        <ele>1914.12207</ele>
        <time>2013-01-12T12:14:08Z</time>
      </trkpt>
      <trkpt lat="42.81312" lon="-0.44188">
        <ele>1913.641357</ele>
        <time>2013-01-12T12:20:32Z</time>
      </trkpt>
      <trkpt lat="42.81309" lon="-0.44186">
        <ele>1912.199463</ele>
        <time>2013-01-12T12:20:49Z</time>
      </trkpt>
      <trkpt lat="42.81307" lon="-0.44182">
        <ele>1910.276855</ele>
        <time>2013-01-12T12:21:19Z</time>
      </trkpt>
      <trkpt lat="42.81309" lon="-0.44177">
        <ele>1910.757568</ele>
        <time>2013-01-12T12:21:45Z</time>
      </trkpt>
      <trkpt lat="42.81307" lon="-0.44174">
        <ele>1911.718994</ele>
        <time>2013-01-12T12:22:22Z</time>
      </trkpt>
      <trkpt lat="42.81307" lon="-0.44174">
        <ele>1911.718994</ele>
        <time>2013-01-12T12:22:47Z</time>
      </trkpt>
      <trkpt lat="42.81309" lon="-0.44174">
        <ele>1911.238281</ele>
        <time>2013-01-12T12:23:10Z</time>
      </trkpt>
      <trkpt lat="42.81306" lon="-0.44175">
        <ele>1910.757568</ele>
        <time>2013-01-12T12:23:44Z</time>
      </trkpt>
      <trkpt lat="42.81302" lon="-0.44177">
        <ele>1909.796143</ele>
        <time>2013-01-12T12:24:03Z</time>
      </trkpt>
      <trkpt lat="42.81298" lon="-0.44176">
        <ele>1908.834961</ele>
        <time>2013-01-12T12:24:18Z</time>
      </trkpt>
      <trkpt lat="42.81291" lon="-0.44169">
        <ele>1905.470459</ele>
        <time>2013-01-12T12:24:31Z</time>
      </trkpt>
      <trkpt lat="42.81287" lon="-0.44152">
        <ele>1903.067139</ele>
        <time>2013-01-12T12:24:51Z</time>
      </trkpt>
      <trkpt lat="42.81286" lon="-0.44136">
        <ele>1900.18335</ele>
        <time>2013-01-12T12:25:06Z</time>
      </trkpt>
      <trkpt lat="42.81282" lon="-0.44122">
        <ele>1896.337891</ele>
        <time>2013-01-12T12:25:20Z</time>
      </trkpt>
      <trkpt lat="42.81284" lon="-0.44101">
        <ele>1893.93457</ele>
        <time>2013-01-12T12:25:40Z</time>
      </trkpt>
      <trkpt lat="42.81283" lon="-0.44085">
        <ele>1891.050537</ele>
        <time>2013-01-12T12:25:53Z</time>
      </trkpt>
      <trkpt lat="42.81283" lon="-0.44075">
        <ele>1889.12793</ele>
        <time>2013-01-12T12:26:01Z</time>
      </trkpt>
      <trkpt lat="42.81283" lon="-0.44068">
        <ele>1887.686035</ele>
        <time>2013-01-12T12:26:07Z</time>
      </trkpt>
      <trkpt lat="42.81284" lon="-0.44045">
        <ele>1883.840576</ele>
        <time>2013-01-12T12:26:26Z</time>
      </trkpt>
      <trkpt lat="42.81282" lon="-0.4403">
        <ele>1880.476074</ele>
        <time>2013-01-12T12:26:41Z</time>
      </trkpt>
      <trkpt lat="42.81281" lon="-0.44015">
        <ele>1877.592041</ele>
        <time>2013-01-12T12:26:57Z</time>
      </trkpt>
      <trkpt lat="42.8128" lon="-0.43985">
        <ele>1874.227539</ele>
        <time>2013-01-12T12:27:21Z</time>
      </trkpt>
      <trkpt lat="42.8128" lon="-0.43982">
        <ele>1872.785645</ele>
        <time>2013-01-12T12:27:24Z</time>
      </trkpt>
      <trkpt lat="42.8128" lon="-0.43954">
        <ele>1869.421143</ele>
        <time>2013-01-12T12:27:45Z</time>
      </trkpt>
      <trkpt lat="42.81276" lon="-0.43927">
        <ele>1867.017578</ele>
        <time>2013-01-12T12:28:05Z</time>
      </trkpt>
      <trkpt lat="42.81274" lon="-0.43892">
        <ele>1864.133545</ele>
        <time>2013-01-12T12:28:29Z</time>
      </trkpt>
      <trkpt lat="42.81273" lon="-0.43887">
        <ele>1862.69165</ele>
        <time>2013-01-12T12:28:32Z</time>
      </trkpt>
      <trkpt lat="42.81271" lon="-0.43866">
        <ele>1859.807617</ele>
        <time>2013-01-12T12:28:48Z</time>
      </trkpt>
      <trkpt lat="42.81268" lon="-0.43838">
        <ele>1856.443115</ele>
        <time>2013-01-12T12:29:07Z</time>
      </trkpt>
      <trkpt lat="42.81265" lon="-0.43809">
        <ele>1855.001221</ele>
        <time>2013-01-12T12:29:27Z</time>
      </trkpt>
      <trkpt lat="42.81261" lon="-0.4378">
        <ele>1854.040039</ele>
        <time>2013-01-12T12:29:47Z</time>
      </trkpt>
      <trkpt lat="42.81258" lon="-0.43749">
        <ele>1853.559326</ele>
        <time>2013-01-12T12:30:09Z</time>
      </trkpt>
      <trkpt lat="42.81255" lon="-0.43717">
        <ele>1852.117188</ele>
        <time>2013-01-12T12:30:31Z</time>
      </trkpt>
      <trkpt lat="42.81253" lon="-0.43697">
        <ele>1849.233154</ele>
        <time>2013-01-12T12:30:49Z</time>
      </trkpt>
      <trkpt lat="42.81254" lon="-0.43679">
        <ele>1845.868652</ele>
        <time>2013-01-12T12:31:06Z</time>
      </trkpt>
      <trkpt lat="42.81254" lon="-0.43661">
        <ele>1842.984619</ele>
        <time>2013-01-12T12:31:21Z</time>
      </trkpt>
      <trkpt lat="42.81253" lon="-0.43638">
        <ele>1839.620117</ele>
        <time>2013-01-12T12:31:38Z</time>
      </trkpt>
      <trkpt lat="42.81251" lon="-0.43625">
        <ele>1836.255615</ele>
        <time>2013-01-12T12:31:48Z</time>
      </trkpt>
      <trkpt lat="42.8125" lon="-0.43596">
        <ele>1832.890625</ele>
        <time>2013-01-12T12:32:09Z</time>
      </trkpt>
      <trkpt lat="42.81249" lon="-0.43572">
        <ele>1830.006836</ele>
        <time>2013-01-12T12:32:26Z</time>
      </trkpt>
      <trkpt lat="42.81249" lon="-0.43555">
        <ele>1829.526123</ele>
        <time>2013-01-12T12:32:38Z</time>
      </trkpt>
      <trkpt lat="42.8125" lon="-0.43532">
        <ele>1826.161621</ele>
        <time>2013-01-12T12:32:52Z</time>
      </trkpt>
      <trkpt lat="42.81254" lon="-0.43506">
        <ele>1822.797119</ele>
        <time>2013-01-12T12:33:10Z</time>
      </trkpt>
      <trkpt lat="42.81259" lon="-0.43474">
        <ele>1820.393799</ele>
        <time>2013-01-12T12:33:33Z</time>
      </trkpt>
      <trkpt lat="42.81265" lon="-0.43444">
        <ele>1817.990234</ele>
        <time>2013-01-12T12:33:55Z</time>
      </trkpt>
      <trkpt lat="42.81273" lon="-0.43416">
        <ele>1813.664307</ele>
        <time>2013-01-12T12:34:16Z</time>
      </trkpt>
      <trkpt lat="42.81277" lon="-0.43397">
        <ele>1810.780518</ele>
        <time>2013-01-12T12:34:33Z</time>
      </trkpt>
      <trkpt lat="42.81279" lon="-0.43389">
        <ele>1808.85791</ele>
        <time>2013-01-12T12:34:40Z</time>
      </trkpt>
      <trkpt lat="42.81282" lon="-0.43379">
        <ele>1808.377197</ele>
        <time>2013-01-12T12:35:00Z</time>
      </trkpt>
      <trkpt lat="42.81286" lon="-0.4337">
        <ele>1806.45459</ele>
        <time>2013-01-12T12:35:10Z</time>
      </trkpt>
      <trkpt lat="42.8129" lon="-0.43362">
        <ele>1805.973877</ele>
        <time>2013-01-12T12:35:19Z</time>
      </trkpt>
      <trkpt lat="42.81292" lon="-0.43349">
        <ele>1804.051514</ele>
        <time>2013-01-12T12:35:30Z</time>
      </trkpt>
      <trkpt lat="42.81289" lon="-0.43336">
        <ele>1800.686523</ele>
        <time>2013-01-12T12:35:44Z</time>
      </trkpt>
      <trkpt lat="42.81286" lon="-0.43327">
        <ele>1797.322021</ele>
        <time>2013-01-12T12:35:53Z</time>
      </trkpt>
      <trkpt lat="42.81286" lon="-0.43316">
        <ele>1795.880127</ele>
        <time>2013-01-12T12:36:03Z</time>
      </trkpt>
      <trkpt lat="42.81291" lon="-0.43297">
        <ele>1792.515625</ele>
        <time>2013-01-12T12:36:18Z</time>
      </trkpt>
      <trkpt lat="42.81294" lon="-0.43282">
        <ele>1789.631592</ele>
        <time>2013-01-12T12:36:30Z</time>
      </trkpt>
      <trkpt lat="42.81298" lon="-0.4326">
        <ele>1786.266846</ele>
        <time>2013-01-12T12:36:48Z</time>
      </trkpt>
      <trkpt lat="42.81303" lon="-0.43242">
        <ele>1782.9021</ele>
        <time>2013-01-12T12:37:04Z</time>
      </trkpt>
      <trkpt lat="42.81302" lon="-0.43232">
        <ele>1780.018311</ele>
        <time>2013-01-12T12:37:13Z</time>
      </trkpt>
      <trkpt lat="42.81301" lon="-0.43229">
        <ele>1779.056885</ele>
        <time>2013-01-12T12:37:15Z</time>
      </trkpt>
      <trkpt lat="42.81297" lon="-0.43198">
        <ele>1776.173096</ele>
        <time>2013-01-12T12:37:35Z</time>
      </trkpt>
      <trkpt lat="42.8129" lon="-0.4317">
        <ele>1773.289307</ele>
        <time>2013-01-12T12:37:57Z</time>
      </trkpt>
      <trkpt lat="42.81282" lon="-0.43134">
        <ele>1772.327881</ele>
        <time>2013-01-12T12:38:23Z</time>
      </trkpt>
      <trkpt lat="42.81275" lon="-0.43106">
        <ele>1770.885742</ele>
        <time>2013-01-12T12:38:44Z</time>
      </trkpt>
      <trkpt lat="42.81268" lon="-0.43073">
        <ele>1769.443848</ele>
        <time>2013-01-12T12:39:08Z</time>
      </trkpt>
      <trkpt lat="42.81261" lon="-0.4304">
        <ele>1768.963135</ele>
        <time>2013-01-12T12:39:32Z</time>
      </trkpt>
      <trkpt lat="42.81254" lon="-0.43013">
        <ele>1768.963135</ele>
        <time>2013-01-12T12:39:52Z</time>
      </trkpt>
      <trkpt lat="42.81248" lon="-0.42986">
        <ele>1767.040527</ele>
        <time>2013-01-12T12:40:11Z</time>
      </trkpt>
      <trkpt lat="42.81246" lon="-0.42975">
        <ele>1767.040527</ele>
        <time>2013-01-12T12:40:30Z</time>
      </trkpt>
      <trkpt lat="42.81245" lon="-0.42968">
        <ele>1767.040527</ele>
        <time>2013-01-12T12:40:43Z</time>
      </trkpt>
      <trkpt lat="42.81244" lon="-0.42966">
        <ele>1767.040527</ele>
        <time>2013-01-12T12:41:00Z</time>
      </trkpt>
      <trkpt lat="42.81243" lon="-0.42946">
        <ele>1766.559814</ele>
        <time>2013-01-12T12:41:23Z</time>
      </trkpt>
      <trkpt lat="42.8124" lon="-0.42915">
        <ele>1767.040527</ele>
        <time>2013-01-12T12:41:45Z</time>
      </trkpt>
      <trkpt lat="42.81238" lon="-0.42892">
        <ele>1768.001709</ele>
        <time>2013-01-12T12:42:04Z</time>
      </trkpt>
      <trkpt lat="42.81237" lon="-0.4287">
        <ele>1768.001709</ele>
        <time>2013-01-12T12:42:20Z</time>
      </trkpt>
      <trkpt lat="42.81237" lon="-0.42835">
        <ele>1767.520996</ele>
        <time>2013-01-12T12:42:43Z</time>
      </trkpt>
      <trkpt lat="42.81238" lon="-0.42801">
        <ele>1766.079102</ele>
        <time>2013-01-12T12:43:07Z</time>
      </trkpt>
      <trkpt lat="42.8124" lon="-0.42791">
        <ele>1764.637207</ele>
        <time>2013-01-12T12:43:15Z</time>
      </trkpt>
      <trkpt lat="42.81247" lon="-0.42766">
        <ele>1761.272705</ele>
        <time>2013-01-12T12:43:35Z</time>
      </trkpt>
      <trkpt lat="42.81249" lon="-0.42759">
        <ele>1761.272705</ele>
        <time>2013-01-12T12:43:40Z</time>
      </trkpt>
      <trkpt lat="42.81262" lon="-0.42734">
        <ele>1759.350098</ele>
        <time>2013-01-12T12:44:01Z</time>
      </trkpt>
      <trkpt lat="42.81271" lon="-0.42703">
        <ele>1757.908203</ele>
        <time>2013-01-12T12:44:23Z</time>
      </trkpt>
      <trkpt lat="42.81275" lon="-0.42673">
        <ele>1754.543213</ele>
        <time>2013-01-12T12:44:44Z</time>
      </trkpt>
      <trkpt lat="42.81279" lon="-0.4265">
        <ele>1751.178711</ele>
        <time>2013-01-12T12:45:00Z</time>
      </trkpt>
      <trkpt lat="42.81289" lon="-0.42618">
        <ele>1750.217529</ele>
        <time>2013-01-12T12:45:23Z</time>
      </trkpt>
      <trkpt lat="42.81304" lon="-0.42595">
        <ele>1745.891602</ele>
        <time>2013-01-12T12:45:45Z</time>
      </trkpt>
      <trkpt lat="42.81305" lon="-0.42594">
        <ele>1746.852783</ele>
        <time>2013-01-12T12:45:46Z</time>
      </trkpt>
      <trkpt lat="42.81315" lon="-0.4258">
        <ele>1743.968994</ele>
        <time>2013-01-12T12:46:00Z</time>
      </trkpt>
      <trkpt lat="42.81322" lon="-0.42557">
        <ele>1740.604248</ele>
        <time>2013-01-12T12:46:19Z</time>
      </trkpt>
      <trkpt lat="42.81334" lon="-0.4253">
        <ele>1739.162109</ele>
        <time>2013-01-12T12:46:40Z</time>
      </trkpt>
      <trkpt lat="42.81345" lon="-0.42501">
        <ele>1736.27832</ele>
        <time>2013-01-12T12:47:02Z</time>
      </trkpt>
      <trkpt lat="42.81352" lon="-0.42475">
        <ele>1735.797607</ele>
        <time>2013-01-12T12:47:21Z</time>
      </trkpt>
      <trkpt lat="42.81359" lon="-0.42459">
        <ele>1733.875</ele>
        <time>2013-01-12T12:47:35Z</time>
      </trkpt>
      <trkpt lat="42.81364" lon="-0.42434">
        <ele>1732.433105</ele>
        <time>2013-01-12T12:47:54Z</time>
      </trkpt>
      <trkpt lat="42.8137" lon="-0.42401">
        <ele>1731.47168</ele>
        <time>2013-01-12T12:48:17Z</time>
      </trkpt>
      <trkpt lat="42.81372" lon="-0.42373">
        <ele>1730.029785</ele>
        <time>2013-01-12T12:48:36Z</time>
      </trkpt>
      <trkpt lat="42.81374" lon="-0.42343">
        <ele>1728.587891</ele>
        <time>2013-01-12T12:48:57Z</time>
      </trkpt>
      <trkpt lat="42.81376" lon="-0.42312">
        <ele>1724.742676</ele>
        <time>2013-01-12T12:49:19Z</time>
      </trkpt>
      <trkpt lat="42.81376" lon="-0.4229">
        <ele>1721.377686</ele>
        <time>2013-01-12T12:49:34Z</time>
      </trkpt>
      <trkpt lat="42.81376" lon="-0.42289">
        <ele>1721.377686</ele>
        <time>2013-01-12T12:49:35Z</time>
      </trkpt>
      <trkpt lat="42.81378" lon="-0.42276">
        <ele>1720.416504</ele>
        <time>2013-01-12T12:49:45Z</time>
      </trkpt>
      <trkpt lat="42.81379" lon="-0.42245">
        <ele>1718.974609</ele>
        <time>2013-01-12T12:50:07Z</time>
      </trkpt>
      <trkpt lat="42.8138" lon="-0.42212">
        <ele>1718.493896</ele>
        <time>2013-01-12T12:50:29Z</time>
      </trkpt>
      <trkpt lat="42.81383" lon="-0.42179">
        <ele>1717.532471</ele>
        <time>2013-01-12T12:50:51Z</time>
      </trkpt>
      <trkpt lat="42.81383" lon="-0.42176">
        <ele>1717.052002</ele>
        <time>2013-01-12T12:50:53Z</time>
      </trkpt>
      <trkpt lat="42.81387" lon="-0.42146">
        <ele>1716.090576</ele>
        <time>2013-01-12T12:51:14Z</time>
      </trkpt>
      <trkpt lat="42.81389" lon="-0.42118">
        <ele>1715.129395</ele>
        <time>2013-01-12T12:51:34Z</time>
      </trkpt>
      <trkpt lat="42.81377" lon="-0.421">
        <ele>1714.167969</ele>
        <time>2013-01-12T12:51:54Z</time>
      </trkpt>
      <trkpt lat="42.81363" lon="-0.42083">
        <ele>1713.206787</ele>
        <time>2013-01-12T12:52:15Z</time>
      </trkpt>
      <trkpt lat="42.81357" lon="-0.42077">
        <ele>1713.687256</ele>
        <time>2013-01-12T12:52:25Z</time>
      </trkpt>
      <trkpt lat="42.81358" lon="-0.42069">
        <ele>1715.129395</ele>
        <time>2013-01-12T12:52:43Z</time>
      </trkpt>
      <trkpt lat="42.8136" lon="-0.42061">
        <ele>1715.129395</ele>
        <time>2013-01-12T12:53:01Z</time>
      </trkpt>
      <trkpt lat="42.81365" lon="-0.42055">
        <ele>1715.129395</ele>
        <time>2013-01-12T12:53:08Z</time>
      </trkpt>
      <trkpt lat="42.81367" lon="-0.42053">
        <ele>1714.648682</ele>
        <time>2013-01-12T12:53:11Z</time>
      </trkpt>
      <trkpt lat="42.81386" lon="-0.42032">
        <ele>1714.648682</ele>
        <time>2013-01-12T12:53:35Z</time>
      </trkpt>
      <trkpt lat="42.81399" lon="-0.42015">
        <ele>1714.167969</ele>
        <time>2013-01-12T12:53:55Z</time>
      </trkpt>
      <trkpt lat="42.8141" lon="-0.41991">
        <ele>1713.687256</ele>
        <time>2013-01-12T12:54:15Z</time>
      </trkpt>
      <trkpt lat="42.81425" lon="-0.41959">
        <ele>1714.648682</ele>
        <time>2013-01-12T12:54:40Z</time>
      </trkpt>
      <trkpt lat="42.81427" lon="-0.41931">
        <ele>1716.090576</ele>
        <time>2013-01-12T12:55:00Z</time>
      </trkpt>
      <trkpt lat="42.81442" lon="-0.41903">
        <ele>1715.610107</ele>
        <time>2013-01-12T12:55:23Z</time>
      </trkpt>
      <trkpt lat="42.81459" lon="-0.41883">
        <ele>1717.052002</ele>
        <time>2013-01-12T12:55:44Z</time>
      </trkpt>
      <trkpt lat="42.81478" lon="-0.41864">
        <ele>1718.974609</ele>
        <time>2013-01-12T12:56:06Z</time>
      </trkpt>
      <trkpt lat="42.81495" lon="-0.41857">
        <ele>1721.377686</ele>
        <time>2013-01-12T12:56:26Z</time>
      </trkpt>
      <trkpt lat="42.81508" lon="-0.41847">
        <ele>1721.377686</ele>
        <time>2013-01-12T12:56:42Z</time>
      </trkpt>
      <trkpt lat="42.81512" lon="-0.41842">
        <ele>1721.377686</ele>
        <time>2013-01-12T12:56:47Z</time>
      </trkpt>
      <trkpt lat="42.81528" lon="-0.41819">
        <ele>1722.819824</ele>
        <time>2013-01-12T12:57:10Z</time>
      </trkpt>
      <trkpt lat="42.81537" lon="-0.41798">
        <ele>1722.819824</ele>
        <time>2013-01-12T12:57:30Z</time>
      </trkpt>
      <trkpt lat="42.81536" lon="-0.41795">
        <ele>1723.300537</ele>
        <time>2013-01-12T12:57:42Z</time>
      </trkpt>
      <trkpt lat="42.81534" lon="-0.41794">
        <ele>1722.819824</ele>
        <time>2013-01-12T12:58:01Z</time>
      </trkpt>
      <trkpt lat="42.81534" lon="-0.41794">
        <ele>1723.300537</ele>
        <time>2013-01-12T12:58:28Z</time>
      </trkpt>
      <trkpt lat="42.81534" lon="-0.41792">
        <ele>1723.781006</ele>
        <time>2013-01-12T12:58:42Z</time>
      </trkpt>
      <trkpt lat="42.81536" lon="-0.41787">
        <ele>1723.300537</ele>
        <time>2013-01-12T12:58:46Z</time>
      </trkpt>
      <trkpt lat="42.81559" lon="-0.41756">
        <ele>1721.377686</ele>
        <time>2013-01-12T12:59:14Z</time>
      </trkpt>
      <trkpt lat="42.81574" lon="-0.41724">
        <ele>1718.493896</ele>
        <time>2013-01-12T12:59:38Z</time>
      </trkpt>
      <trkpt lat="42.81576" lon="-0.41715">
        <ele>1718.974609</ele>
        <time>2013-01-12T12:59:57Z</time>
      </trkpt>
      <trkpt lat="42.81575" lon="-0.41712">
        <ele>1718.493896</ele>
        <time>2013-01-12T13:00:15Z</time>
      </trkpt>
      <trkpt lat="42.81575" lon="-0.41712">
        <ele>1718.974609</ele>
        <time>2013-01-12T13:00:41Z</time>
      </trkpt>
      <trkpt lat="42.81576" lon="-0.41713">
        <ele>1717.052002</ele>
        <time>2013-01-12T13:00:56Z</time>
      </trkpt>
      <trkpt lat="42.81575" lon="-0.41713">
        <ele>1717.052002</ele>
        <time>2013-01-12T13:01:15Z</time>
      </trkpt>
      <trkpt lat="42.81576" lon="-0.41713">
        <ele>1718.493896</ele>
        <time>2013-01-12T13:01:34Z</time>
      </trkpt>
      <trkpt lat="42.81575" lon="-0.41712">
        <ele>1718.013184</ele>
        <time>2013-01-12T13:01:54Z</time>
      </trkpt>
      <trkpt lat="42.81575" lon="-0.41713">
        <ele>1718.493896</ele>
        <time>2013-01-12T13:02:08Z</time>
      </trkpt>
      <trkpt lat="42.81575" lon="-0.41715">
        <ele>1718.013184</ele>
        <time>2013-01-12T13:02:30Z</time>
      </trkpt>
      <trkpt lat="42.81575" lon="-0.41713">
        <ele>1717.532471</ele>
        <time>2013-01-12T13:03:04Z</time>
      </trkpt>
      <trkpt lat="42.81574" lon="-0.41714">
        <ele>1717.532471</ele>
        <time>2013-01-12T13:03:58Z</time>
      </trkpt>
      <trkpt lat="42.81573" lon="-0.41711">
        <ele>1717.052002</ele>
        <time>2013-01-12T13:04:16Z</time>
      </trkpt>
      <trkpt lat="42.81575" lon="-0.41716">
        <ele>1720.416504</ele>
        <time>2013-01-12T13:04:37Z</time>
      </trkpt>
      <trkpt lat="42.81575" lon="-0.41716">
        <ele>1718.974609</ele>
        <time>2013-01-12T13:04:38Z</time>
      </trkpt>
    </trkseg>
  </trk>
</gpx>